KFLO

Florence Regional Airport

Florence, South Carolina, USA
METAR KFLO 231353Z 12003KT 8SM FEW007 17/17 A3048 RMK AO2 SLP318 T01720167
Observed Flight Rules
Feb-23 @ 13:53 UTC (35 minutes ago) Visual Flight Rules
Wind Visibility Clouds
120° at 3 knots 8 miles
  • Few at 700' AGL
Temperatures Readings
Current 17°C / 63°F
Dewpoint 17°C / 63°F
Humidity 100%
Altimeter 30.48" Hg
Pressure 1031.8 hPa
Elevation 44
METAR KFLO 231353Z 12003KT 8SM FEW007 17/17 A3048 RMK AO2 SLP318 T01720167
Observed Flight Rules
Feb-23 @ 13:53 UTC
(35 minutes ago)
VFR
Wind Visibility
120° at 3 knots 8 miles
Clouds
  • Few at 700' AGL
Temperature Dewpoint
17°C / 63°F 17°C / 63°F
Humidity Altimeter Pressure
100% 30.48" Hg 1031.8 hPa